»·PEaware :: SHOOT18 KLSV-KLSV

SHOOT18 :: KLSV-KLSV

FLIGHT INFORMATION

Flight Status: Arrived
Operator: Unknown
More flights by this operator :: More flights under this callsign
Pilot: Ethan B. (2691)
Aircraft: FAIRCHILD A-10 THUNDERBOLT 2
(A10)
More flights by this aircraft type
Origin: KLSV Nellis AFB
United States
Destination: KLSV Nellis AFB
United States
More flights between these airports :: More routes between these airports
Route: +TAC W
File this flight plan on PilotEdge
Remarks:
Altitude:
(Current/Filed)
0ft
Speed:
(Current/Filed)
0kts
Departed: 15-Nov-16 07:27 PM
Arrived: 15-Nov-16 08:11 PM
Distance/Time
Traveled:
1nm/0:44
Distance/Time
To Go:
Arrived

Flight Plot

Page will automatically refresh every two minutes.

Flight plan parsing failed; only flown route is shown


Map Options




Map Legend


Flown Route
Filed Route
Departure Airport
Arrival Airport
Navaid (VOR, NDB)
Fix

Horizontal Profiles

Position Reports

Time Latitude Longitude Heading Altitude Ground
Speed
15-Nov-16 19:08 36.229637 -115.024479 264 1850ft 0kts
15-Nov-16 19:09 36.229637 -115.024479 264 1850ft 0kts
15-Nov-16 19:10 36.229637 -115.024479 264 1850ft 0kts
15-Nov-16 19:11 36.229707 -115.025157 306 1850ft 13kts
15-Nov-16 19:12 36.230199 -115.026014 303 1850ft 0kts
15-Nov-16 19:13 36.230199 -115.026014 303 1850ft 0kts
15-Nov-16 19:14 36.230220 -115.026050 305 1850ft 2kts
15-Nov-16 19:15 36.230739 -115.031396 255 1849ft 22kts
15-Nov-16 19:16 36.225739 -115.037073 219 1849ft 18kts
15-Nov-16 19:17 36.225542 -115.037276 221 1849ft 7kts
15-Nov-16 19:18 36.223730 -115.042451 310 1848ft 5kts
15-Nov-16 19:19 36.224540 -115.043510 314 1848ft 20kts
15-Nov-16 19:20 36.225857 -115.043323 40 1849ft 19kts
15-Nov-16 19:21 36.256188 -115.011347 37 2072ft 220kts
15-Nov-16 19:22 36.319087 -115.000318 330 3362ft 256kts
15-Nov-16 19:23 36.331389 -115.088807 277 4087ft 270kts
15-Nov-16 19:24 36.344985 -115.176102 300 5363ft 234kts
15-Nov-16 19:25 36.403346 -115.206100 357 7178ft 238kts
15-Nov-16 19:26 36.466838 -115.231246 323 9268ft 228kts
15-Nov-16 19:27 36.518582 -115.285369 321 10538ft 257kts
15-Nov-16 19:28 36.577863 -115.334203 328 12528ft 249kts
15-Nov-16 19:29 36.647173 -115.350379 15 13708ft 270kts
15-Nov-16 19:30 36.721535 -115.317603 14 14304ft 286kts
15-Nov-16 19:31 36.799720 -115.303862 358 15174ft 291kts
15-Nov-16 19:32 36.884158 -115.307327 358 15231ft 307kts
15-Nov-16 19:33 36.957610 -115.261587 53 15479ft 308kts
15-Nov-16 19:34 37.020305 -115.201168 340 16396ft 267kts
15-Nov-16 19:35 37.040579 -115.289218 241 15031ft 327kts
15-Nov-16 19:36 36.968032 -115.293298 129 14788ft 314kts
15-Nov-16 19:37 36.982101 -115.205697 12 14901ft 274kts
15-Nov-16 19:38 37.044382 -115.242128 286 14957ft 262kts
15-Nov-16 19:39 37.014889 -115.314838 196 15052ft 263kts
15-Nov-16 19:40 36.958904 -115.271308 96 14982ft 265kts
15-Nov-16 19:41 36.999183 -115.206271 1 14982ft 261kts
15-Nov-16 19:42 37.053873 -115.247673 129 8466ft 78kts
15-Nov-16 19:43 37.016860 -115.195197 124 6348ft 218kts
15-Nov-16 19:44 36.962124 -115.190097 260 5411ft 306kts
15-Nov-16 19:45 37.001605 -115.255699 331 5016ft 209kts
15-Nov-16 19:46 37.049443 -115.222284 74 6550ft 253kts
15-Nov-16 19:47 37.024329 -115.209416 232 4449ft 319kts
15-Nov-16 19:48 36.967848 -115.233899 110 4548ft 211kts
15-Nov-16 19:49 37.023552 -115.219507 312 4933ft 214kts
15-Nov-16 19:50 36.967744 -115.218199 99 4350ft 277kts
15-Nov-16 19:51 37.013638 -115.179722 118 6482ft 232kts
15-Nov-16 19:52 36.945604 -115.166400 189 7777ft 264kts
15-Nov-16 19:53 36.874208 -115.172633 183 10258ft 238kts
15-Nov-16 19:54 36.808120 -115.169691 161 11918ft 253kts
15-Nov-16 19:55 36.736282 -115.136853 158 12795ft 293kts
15-Nov-16 19:56 36.660734 -115.094560 154 13711ft 296kts
15-Nov-16 19:57 36.580066 -115.045225 151 12707ft 335kts
15-Nov-16 19:58 36.498721 -114.989926 149 12121ft 340kts
15-Nov-16 19:59 36.414799 -114.940184 157 11881ft 331kts
15-Nov-16 20:00 36.328460 -114.911049 214 9440ft 315kts
15-Nov-16 20:01 36.273223 -114.989626 219 3683ft 275kts
15-Nov-16 20:02 36.231167 -115.008399 67 2599ft 212kts
15-Nov-16 20:03 36.246919 -115.020156 221 1915ft 150kts
15-Nov-16 20:04 36.227615 -115.041046 220 1850ft 66kts
15-Nov-16 20:05 36.223345 -115.042657 42 1848ft 0kts
15-Nov-16 20:06 36.223345 -115.042657 42 1848ft 0kts

Navigation Log

Ident Type
Flight plan parsing failed, navigation log unavailable